sensor_id;sensor_type;location;lat;lon;timestamp;pressure;altitude;pressure_sealevel;temperature
19666;BMP180;9980;51.020;7.772;2023-04-25T00:00:48;96788.00;;;8.60
19666;BMP180;9980;51.020;7.772;2023-04-25T00:03:14;96799.00;;;8.70
19666;BMP180;9980;51.020;7.772;2023-04-25T00:05:41;96792.00;;;8.70
19666;BMP180;9980;51.020;7.772;2023-04-25T00:08:07;96788.00;;;8.60
19666;BMP180;9980;51.020;7.772;2023-04-25T00:10:33;96808.00;;;8.60
19666;BMP180;9980;51.020;7.772;2023-04-25T00:13:00;96800.00;;;8.60
19666;BMP180;9980;51.020;7.772;2023-04-25T00:15:29;96800.00;;;8.60
19666;BMP180;9980;51.020;7.772;2023-04-25T00:17:57;96800.00;;;8.60
19666;BMP180;9980;51.020;7.772;2023-04-25T00:20:23;96820.00;;;8.60
19666;BMP180;9980;51.020;7.772;2023-04-25T00:22:50;96811.00;;;8.60
19666;BMP180;9980;51.020;7.772;2023-04-25T00:25:19;96811.00;;;8.60
19666;BMP180;9980;51.020;7.772;2023-04-25T00:27:45;96826.00;;;8.70
19666;BMP180;9980;51.020;7.772;2023-04-25T00:30:12;96816.00;;;8.70
19666;BMP180;9980;51.020;7.772;2023-04-25T00:32:40;96814.00;;;8.60
19666;BMP180;9980;51.020;7.772;2023-04-25T00:35:06;96820.00;;;8.60
19666;BMP180;9980;51.020;7.772;2023-04-25T00:37:33;96807.00;;;8.60
19666;BMP180;9980;51.020;7.772;2023-04-25T00:39:59;96815.00;;;8.60
19666;BMP180;9980;51.020;7.772;2023-04-25T00:42:26;96814.00;;;8.60
19666;BMP180;9980;51.020;7.772;2023-04-25T00:44:53;96829.00;;;8.60
19666;BMP180;9980;51.020;7.772;2023-04-25T00:47:19;96810.00;;;8.60
19666;BMP180;9980;51.020;7.772;2023-04-25T00:49:46;96814.00;;;8.60
19666;BMP180;9980;51.020;7.772;2023-04-25T00:52:12;96808.00;;;8.60
19666;BMP180;9980;51.020;7.772;2023-04-25T00:54:39;96807.00;;;8.60
19666;BMP180;9980;51.020;7.772;2023-04-25T00:57:05;96813.00;;;8.60
19666;BMP180;9980;51.020;7.772;2023-04-25T00:59:33;96817.00;;;8.60
19666;BMP180;9980;51.020;7.772;2023-04-25T01:01:59;96799.00;;;8.50
19666;BMP180;9980;51.020;7.772;2023-04-25T01:04:27;96810.00;;;8.50
19666;BMP180;9980;51.020;7.772;2023-04-25T01:06:55;96814.00;;;8.60
19666;BMP180;9980;51.020;7.772;2023-04-25T01:09:22;96823.00;;;8.60
19666;BMP180;9980;51.020;7.772;2023-04-25T01:11:49;96814.00;;;8.50
19666;BMP180;9980;51.020;7.772;2023-04-25T01:14:16;96810.00;;;8.50
19666;BMP180;9980;51.020;7.772;2023-04-25T01:16:42;96806.00;;;8.50
19666;BMP180;9980;51.020;7.772;2023-04-25T01:19:10;96814.00;;;8.50
19666;BMP180;9980;51.020;7.772;2023-04-25T01:21:39;96823.00;;;8.50
19666;BMP180;9980;51.020;7.772;2023-04-25T01:24:06;96829.00;;;8.50
19666;BMP180;9980;51.020;7.772;2023-04-25T01:26:34;96815.00;;;8.50
19666;BMP180;9980;51.020;7.772;2023-04-25T01:29:01;96812.00;;;8.50
19666;BMP180;9980;51.020;7.772;2023-04-25T01:31:28;96819.00;;;8.50
19666;BMP180;9980;51.020;7.772;2023-04-25T01:33:55;96818.00;;;8.50
19666;BMP180;9980;51.020;7.772;2023-04-25T01:36:22;96821.00;;;8.50
19666;BMP180;9980;51.020;7.772;2023-04-25T01:38:49;96813.00;;;8.50
19666;BMP180;9980;51.020;7.772;2023-04-25T01:41:15;96822.00;;;8.60
19666;BMP180;9980;51.020;7.772;2023-04-25T01:43:44;96826.00;;;8.60
19666;BMP180;9980;51.020;7.772;2023-04-25T01:46:12;96836.00;;;8.60
19666;BMP180;9980;51.020;7.772;2023-04-25T01:48:38;96834.00;;;8.60
19666;BMP180;9980;51.020;7.772;2023-04-25T01:51:06;96849.00;;;8.70
19666;BMP180;9980;51.020;7.772;2023-04-25T01:53:33;96826.00;;;8.70
19666;BMP180;9980;51.020;7.772;2023-04-25T01:56:01;96832.00;;;8.70
19666;BMP180;9980;51.020;7.772;2023-04-25T01:58:32;96833.00;;;8.70
19666;BMP180;9980;51.020;7.772;2023-04-25T02:01:24;96840.00;;;8.80
19666;BMP180;9980;51.020;7.772;2023-04-25T02:04:10;96835.00;;;8.80
19666;BMP180;9980;51.020;7.772;2023-04-25T02:06:38;96833.00;;;8.80
19666;BMP180;9980;51.020;7.772;2023-04-25T02:09:06;96837.00;;;8.80
19666;BMP180;9980;51.020;7.772;2023-04-25T02:11:32;96840.00;;;8.90
19666;BMP180;9980;51.020;7.772;2023-04-25T02:14:17;96831.00;;;8.90
19666;BMP180;9980;51.020;7.772;2023-04-25T02:16:59;96836.00;;;8.90
19666;BMP180;9980;51.020;7.772;2023-04-25T02:19:26;96842.00;;;8.90
19666;BMP180;9980;51.020;7.772;2023-04-25T02:21:52;96840.00;;;9.00
19666;BMP180;9980;51.020;7.772;2023-04-25T02:24:18;96836.00;;;9.00
19666;BMP180;9980;51.020;7.772;2023-04-25T02:26:45;96848.00;;;9.00
19666;BMP180;9980;51.020;7.772;2023-04-25T02:29:12;96838.00;;;9.00
19666;BMP180;9980;51.020;7.772;2023-04-25T02:31:42;96823.00;;;9.10
19666;BMP180;9980;51.020;7.772;2023-04-25T02:34:08;96828.00;;;9.10
19666;BMP180;9980;51.020;7.772;2023-04-25T02:36:36;96837.00;;;9.10
19666;BMP180;9980;51.020;7.772;2023-04-25T02:39:03;96829.00;;;9.10
19666;BMP180;9980;51.020;7.772;2023-04-25T02:41:29;96845.00;;;9.10
19666;BMP180;9980;51.020;7.772;2023-04-25T02:43:55;96844.00;;;9.10
19666;BMP180;9980;51.020;7.772;2023-04-25T02:46:21;96842.00;;;9.10
19666;BMP180;9980;51.020;7.772;2023-04-25T02:49:05;96837.00;;;9.10
19666;BMP180;9980;51.020;7.772;2023-04-25T02:51:32;96833.00;;;9.20
19666;BMP180;9980;51.020;7.772;2023-04-25T02:53:59;96832.00;;;9.20
19666;BMP180;9980;51.020;7.772;2023-04-25T02:56:25;96835.00;;;9.20
19666;BMP180;9980;51.020;7.772;2023-04-25T02:58:52;96837.00;;;9.20
19666;BMP180;9980;51.020;7.772;2023-04-25T03:01:19;96825.00;;;9.20
19666;BMP180;9980;51.020;7.772;2023-04-25T03:03:46;96830.00;;;9.20
19666;BMP180;9980;51.020;7.772;2023-04-25T03:06:12;96831.00;;;9.20
19666;BMP180;9980;51.020;7.772;2023-04-25T03:08:38;96831.00;;;9.30
19666;BMP180;9980;51.020;7.772;2023-04-25T03:11:05;96833.00;;;9.30
19666;BMP180;9980;51.020;7.772;2023-04-25T03:13:31;96829.00;;;9.30
19666;BMP180;9980;51.020;7.772;2023-04-25T03:15:58;96837.00;;;9.30
19666;BMP180;9980;51.020;7.772;2023-04-25T03:18:25;96830.00;;;9.30
19666;BMP180;9980;51.020;7.772;2023-04-25T03:20:51;96833.00;;;9.30
19666;BMP180;9980;51.020;7.772;2023-04-25T03:23:17;96829.00;;;9.30
19666;BMP180;9980;51.020;7.772;2023-04-25T03:25:44;96838.00;;;9.30
19666;BMP180;9980;51.020;7.772;2023-04-25T03:28:11;96836.00;;;9.30
19666;BMP180;9980;51.020;7.772;2023-04-25T03:30:37;96835.00;;;9.40
19666;BMP180;9980;51.020;7.772;2023-04-25T03:33:03;96821.00;;;9.40
19666;BMP180;9980;51.020;7.772;2023-04-25T03:35:30;96832.00;;;9.40
19666;BMP180;9980;51.020;7.772;2023-04-25T03:37:57;96821.00;;;9.40
19666;BMP180;9980;51.020;7.772;2023-04-25T03:40:28;96832.00;;;9.40
19666;BMP180;9980;51.020;7.772;2023-04-25T03:43:12;96837.00;;;9.40
19666;BMP180;9980;51.020;7.772;2023-04-25T03:45:44;96830.00;;;9.40
19666;BMP180;9980;51.020;7.772;2023-04-25T03:48:11;96838.00;;;9.40
19666;BMP180;9980;51.020;7.772;2023-04-25T03:50:38;96841.00;;;9.40
19666;BMP180;9980;51.020;7.772;2023-04-25T03:53:04;96837.00;;;9.40
19666;BMP180;9980;51.020;7.772;2023-04-25T03:55:44;96843.00;;;9.40
19666;BMP180;9980;51.020;7.772;2023-04-25T03:58:11;96836.00;;;9.40
19666;BMP180;9980;51.020;7.772;2023-04-25T04:00:37;96831.00;;;9.40
19666;BMP180;9980;51.020;7.772;2023-04-25T04:03:04;96844.00;;;9.50
19666;BMP180;9980;51.020;7.772;2023-04-25T04:05:31;96834.00;;;9.50
19666;BMP180;9980;51.020;7.772;2023-04-25T04:07:58;96835.00;;;9.50
19666;BMP180;9980;51.020;7.772;2023-04-25T04:10:24;96837.00;;;9.50
19666;BMP180;9980;51.020;7.772;2023-04-25T04:12:54;96838.00;;;9.50
19666;BMP180;9980;51.020;7.772;2023-04-25T04:15:20;96827.00;;;9.50
19666;BMP180;9980;51.020;7.772;2023-04-25T04:17:48;96834.00;;;9.50
19666;BMP180;9980;51.020;7.772;2023-04-25T04:20:15;96832.00;;;9.50
19666;BMP180;9980;51.020;7.772;2023-04-25T04:22:41;96835.00;;;9.50
19666;BMP180;9980;51.020;7.772;2023-04-25T04:25:11;96845.00;;;9.50
19666;BMP180;9980;51.020;7.772;2023-04-25T04:28:00;96841.00;;;9.50
19666;BMP180;9980;51.020;7.772;2023-04-25T04:30:48;96851.00;;;9.50
19666;BMP180;9980;51.020;7.772;2023-04-25T04:33:17;96846.00;;;9.50
19666;BMP180;9980;51.020;7.772;2023-04-25T04:35:48;96860.00;;;9.50
19666;BMP180;9980;51.020;7.772;2023-04-25T04:38:15;96864.00;;;9.50
19666;BMP180;9980;51.020;7.772;2023-04-25T04:40:42;96865.00;;;9.50
19666;BMP180;9980;51.020;7.772;2023-04-25T04:43:31;96860.00;;;9.50
19666;BMP180;9980;51.020;7.772;2023-04-25T04:46:07;96856.00;;;9.50
19666;BMP180;9980;51.020;7.772;2023-04-25T04:49:12;96861.00;;;9.60
19666;BMP180;9980;51.020;7.772;2023-04-25T04:52:02;96856.00;;;9.60
19666;BMP180;9980;51.020;7.772;2023-04-25T04:54:37;96859.00;;;9.60
19666;BMP180;9980;51.020;7.772;2023-04-25T04:57:16;96874.00;;;9.60
19666;BMP180;9980;51.020;7.772;2023-04-25T05:00:14;96871.00;;;9.60
19666;BMP180;9980;51.020;7.772;2023-04-25T05:02:59;96869.00;;;9.70
19666;BMP180;9980;51.020;7.772;2023-04-25T05:05:58;96881.00;;;9.70
19666;BMP180;9980;51.020;7.772;2023-04-25T05:08:53;96878.00;;;9.70
19666;BMP180;9980;51.020;7.772;2023-04-25T05:11:24;96884.00;;;9.70
19666;BMP180;9980;51.020;7.772;2023-04-25T05:14:05;96893.00;;;9.80
19666;BMP180;9980;51.020;7.772;2023-04-25T05:16:43;96886.00;;;9.80
19666;BMP180;9980;51.020;7.772;2023-04-25T05:19:39;96883.00;;;9.80
19666;BMP180;9980;51.020;7.772;2023-04-25T05:22:24;96884.00;;;9.90
19666;BMP180;9980;51.020;7.772;2023-04-25T05:25:10;96885.00;;;10.00
19666;BMP180;9980;51.020;7.772;2023-04-25T05:27:56;96890.00;;;10.00
19666;BMP180;9980;51.020;7.772;2023-04-25T05:30:41;96904.00;;;10.10
19666;BMP180;9980;51.020;7.772;2023-04-25T05:33:13;96902.00;;;10.10
19666;BMP180;9980;51.020;7.772;2023-04-25T05:35:41;96896.00;;;10.20
19666;BMP180;9980;51.020;7.772;2023-04-25T05:38:07;96905.00;;;10.30
19666;BMP180;9980;51.020;7.772;2023-04-25T05:41:05;96910.00;;;10.30
19666;BMP180;9980;51.020;7.772;2023-04-25T05:43:52;96913.00;;;10.40
19666;BMP180;9980;51.020;7.772;2023-04-25T05:46:34;96910.00;;;10.40
19666;BMP180;9980;51.020;7.772;2023-04-25T05:49:21;96910.00;;;10.50
19666;BMP180;9980;51.020;7.772;2023-04-25T05:52:18;96920.00;;;10.50
19666;BMP180;9980;51.020;7.772;2023-04-25T05:54:54;96927.00;;;10.60
19666;BMP180;9980;51.020;7.772;2023-04-25T05:57:26;96930.00;;;10.60
19666;BMP180;9980;51.020;7.772;2023-04-25T05:59:54;96917.00;;;10.60
19666;BMP180;9980;51.020;7.772;2023-04-25T06:02:22;96922.00;;;10.60
19666;BMP180;9980;51.020;7.772;2023-04-25T06:04:50;96930.00;;;10.60
19666;BMP180;9980;51.020;7.772;2023-04-25T06:07:19;96940.00;;;10.70
19666;BMP180;9980;51.020;7.772;2023-04-25T06:09:46;96943.00;;;10.70
19666;BMP180;9980;51.020;7.772;2023-04-25T06:12:12;96932.00;;;10.70
19666;BMP180;9980;51.020;7.772;2023-04-25T06:14:40;96959.00;;;10.70
19666;BMP180;9980;51.020;7.772;2023-04-25T06:17:06;96948.00;;;10.80
19666;BMP180;9980;51.020;7.772;2023-04-25T06:19:35;96944.00;;;10.80
19666;BMP180;9980;51.020;7.772;2023-04-25T06:22:02;96953.00;;;10.80
19666;BMP180;9980;51.020;7.772;2023-04-25T06:24:30;96948.00;;;10.80
19666;BMP180;9980;51.020;7.772;2023-04-25T06:26:56;96956.00;;;10.80
19666;BMP180;9980;51.020;7.772;2023-04-25T06:29:23;96965.00;;;10.80
19666;BMP180;9980;51.020;7.772;2023-04-25T06:31:49;96971.00;;;10.80
19666;BMP180;9980;51.020;7.772;2023-04-25T06:34:16;96989.00;;;10.80
19666;BMP180;9980;51.020;7.772;2023-04-25T06:36:42;96980.00;;;10.70
19666;BMP180;9980;51.020;7.772;2023-04-25T06:39:13;96983.00;;;10.70
19666;BMP180;9980;51.020;7.772;2023-04-25T06:41:39;96997.00;;;10.60
19666;BMP180;9980;51.020;7.772;2023-04-25T06:44:08;97002.00;;;10.60
19666;BMP180;9980;51.020;7.772;2023-04-25T06:46:40;96997.00;;;10.60
19666;BMP180;9980;51.020;7.772;2023-04-25T06:49:06;96998.00;;;10.60
19666;BMP180;9980;51.020;7.772;2023-04-25T06:51:33;96997.00;;;10.60
19666;BMP180;9980;51.020;7.772;2023-04-25T06:53:59;97014.00;;;10.50
19666;BMP180;9980;51.020;7.772;2023-04-25T06:56:32;97009.00;;;10.50
19666;BMP180;9980;51.020;7.772;2023-04-25T06:59:06;97013.00;;;10.50
19666;BMP180;9980;51.020;7.772;2023-04-25T07:01:36;97017.00;;;10.50
19666;BMP180;9980;51.020;7.772;2023-04-25T07:04:05;97006.00;;;10.50
19666;BMP180;9980;51.020;7.772;2023-04-25T07:06:35;97010.00;;;10.50
19666;BMP180;9980;51.020;7.772;2023-04-25T07:09:04;96999.00;;;10.50
19666;BMP180;9980;51.020;7.772;2023-04-25T07:11:31;97004.00;;;10.50
19666;BMP180;9980;51.020;7.772;2023-04-25T07:14:00;96990.00;;;10.50
19666;BMP180;9980;51.020;7.772;2023-04-25T07:16:26;96997.00;;;10.50
19666;BMP180;9980;51.020;7.772;2023-04-25T07:18:53;96989.00;;;10.60
19666;BMP180;9980;51.020;7.772;2023-04-25T07:21:20;96998.00;;;10.60
19666;BMP180;9980;51.020;7.772;2023-04-25T07:23:48;96981.00;;;10.60
19666;BMP180;9980;51.020;7.772;2023-04-25T07:26:19;96982.00;;;10.60
19666;BMP180;9980;51.020;7.772;2023-04-25T07:29:16;97009.00;;;10.70
19666;BMP180;9980;51.020;7.772;2023-04-25T07:31:43;97002.00;;;10.80
19666;BMP180;9980;51.020;7.772;2023-04-25T07:34:09;96996.00;;;10.90
19666;BMP180;9980;51.020;7.772;2023-04-25T07:36:37;97011.00;;;10.90
19666;BMP180;9980;51.020;7.772;2023-04-25T07:39:04;97008.00;;;11.00
19666;BMP180;9980;51.020;7.772;2023-04-25T07:41:32;97029.00;;;11.10
19666;BMP180;9980;51.020;7.772;2023-04-25T07:43:58;97015.00;;;11.10
19666;BMP180;9980;51.020;7.772;2023-04-25T07:46:25;97010.00;;;11.20
19666;BMP180;9980;51.020;7.772;2023-04-25T07:48:52;97018.00;;;11.20
19666;BMP180;9980;51.020;7.772;2023-04-25T07:51:19;97019.00;;;11.30
19666;BMP180;9980;51.020;7.772;2023-04-25T07:53:46;97015.00;;;11.40
19666;BMP180;9980;51.020;7.772;2023-04-25T07:56:16;97030.00;;;11.40
19666;BMP180;9980;51.020;7.772;2023-04-25T07:58:47;97030.00;;;11.50
19666;BMP180;9980;51.020;7.772;2023-04-25T08:01:15;97031.00;;;11.60
19666;BMP180;9980;51.020;7.772;2023-04-25T08:03:42;97040.00;;;11.70
19666;BMP180;9980;51.020;7.772;2023-04-25T08:06:16;97027.00;;;11.80
19666;BMP180;9980;51.020;7.772;2023-04-25T08:09:11;97037.00;;;11.90
19666;BMP180;9980;51.020;7.772;2023-04-25T08:11:41;97051.00;;;12.00
19666;BMP180;9980;51.020;7.772;2023-04-25T08:14:11;97032.00;;;12.10
19666;BMP180;9980;51.020;7.772;2023-04-25T08:16:39;97046.00;;;12.30
19666;BMP180;9980;51.020;7.772;2023-04-25T08:19:06;97043.00;;;12.30
19666;BMP180;9980;51.020;7.772;2023-04-25T08:21:32;97055.00;;;12.40
19666;BMP180;9980;51.020;7.772;2023-04-25T08:24:03;97040.00;;;12.40
19666;BMP180;9980;51.020;7.772;2023-04-25T08:26:33;97058.00;;;12.50
19666;BMP180;9980;51.020;7.772;2023-04-25T08:29:01;97071.00;;;12.60
19666;BMP180;9980;51.020;7.772;2023-04-25T08:31:27;97081.00;;;12.60
19666;BMP180;9980;51.020;7.772;2023-04-25T08:33:57;97076.00;;;12.70
19666;BMP180;9980;51.020;7.772;2023-04-25T08:36:37;97081.00;;;12.70
19666;BMP180;9980;51.020;7.772;2023-04-25T08:39:24;97065.00;;;12.70
19666;BMP180;9980;51.020;7.772;2023-04-25T08:42:12;97081.00;;;12.70
19666;BMP180;9980;51.020;7.772;2023-04-25T08:44:38;97081.00;;;12.80
19666;BMP180;9980;51.020;7.772;2023-04-25T08:47:05;97085.00;;;12.90
19666;BMP180;9980;51.020;7.772;2023-04-25T08:49:45;97085.00;;;12.90
19666;BMP180;9980;51.020;7.772;2023-04-25T08:52:14;97082.00;;;13.00
19666;BMP180;9980;51.020;7.772;2023-04-25T08:54:48;97082.00;;;13.00
19666;BMP180;9980;51.020;7.772;2023-04-25T08:57:17;97101.00;;;13.00
19666;BMP180;9980;51.020;7.772;2023-04-25T08:59:47;97089.00;;;13.00
19666;BMP180;9980;51.020;7.772;2023-04-25T09:02:15;97102.00;;;13.00
19666;BMP180;9980;51.020;7.772;2023-04-25T09:04:47;97104.00;;;13.00
19666;BMP180;9980;51.020;7.772;2023-04-25T09:07:14;97108.00;;;13.00
19666;BMP180;9980;51.020;7.772;2023-04-25T09:09:44;97107.00;;;13.00
19666;BMP180;9980;51.020;7.772;2023-04-25T09:12:10;97118.00;;;13.00
19666;BMP180;9980;51.020;7.772;2023-04-25T09:14:39;97131.00;;;13.00
19666;BMP180;9980;51.020;7.772;2023-04-25T09:17:18;97123.00;;;13.00
19666;BMP180;9980;51.020;7.772;2023-04-25T09:20:10;97137.00;;;13.00
19666;BMP180;9980;51.020;7.772;2023-04-25T09:22:37;97140.00;;;13.00
19666;BMP180;9980;51.020;7.772;2023-04-25T09:25:12;97143.00;;;12.90
19666;BMP180;9980;51.020;7.772;2023-04-25T09:27:52;97142.00;;;12.90
19666;BMP180;9980;51.020;7.772;2023-04-25T09:30:34;97154.00;;;12.90
19666;BMP180;9980;51.020;7.772;2023-04-25T09:33:08;97151.00;;;12.90
19666;BMP180;9980;51.020;7.772;2023-04-25T09:35:42;97146.00;;;13.00
19666;BMP180;9980;51.020;7.772;2023-04-25T09:38:15;97163.00;;;13.00
19666;BMP180;9980;51.020;7.772;2023-04-25T09:41:02;97150.00;;;13.10
19666;BMP180;9980;51.020;7.772;2023-04-25T09:43:39;97161.00;;;13.10
19666;BMP180;9980;51.020;7.772;2023-04-25T09:46:10;97157.00;;;13.10
19666;BMP180;9980;51.020;7.772;2023-04-25T09:48:47;97155.00;;;13.20
19666;BMP180;9980;51.020;7.772;2023-04-25T09:51:14;97163.00;;;13.20
19666;BMP180;9980;51.020;7.772;2023-04-25T09:53:45;97169.00;;;13.20
19666;BMP180;9980;51.020;7.772;2023-04-25T09:56:36;97164.00;;;13.30
19666;BMP180;9980;51.020;7.772;2023-04-25T09:59:08;97168.00;;;13.30
19666;BMP180;9980;51.020;7.772;2023-04-25T10:01:40;97164.00;;;13.30
19666;BMP180;9980;51.020;7.772;2023-04-25T10:04:17;97165.00;;;13.40
19666;BMP180;9980;51.020;7.772;2023-04-25T10:07:07;97168.00;;;13.60
19666;BMP180;9980;51.020;7.772;2023-04-25T10:09:38;97175.00;;;13.70
19666;BMP180;9980;51.020;7.772;2023-04-25T10:12:07;97167.00;;;13.70
19666;BMP180;9980;51.020;7.772;2023-04-25T10:14:34;97161.00;;;13.80
19666;BMP180;9980;51.020;7.772;2023-04-25T10:17:01;97168.00;;;13.90
19666;BMP180;9980;51.020;7.772;2023-04-25T10:19:28;97160.00;;;14.00
19666;BMP180;9980;51.020;7.772;2023-04-25T10:22:18;97174.00;;;13.90
19666;BMP180;9980;51.020;7.772;2023-04-25T10:24:46;97171.00;;;14.00
19666;BMP180;9980;51.020;7.772;2023-04-25T10:27:14;97171.00;;;14.00
19666;BMP180;9980;51.020;7.772;2023-04-25T10:29:41;97170.00;;;14.00
19666;BMP180;9980;51.020;7.772;2023-04-25T10:32:09;97168.00;;;14.00
19666;BMP180;9980;51.020;7.772;2023-04-25T10:34:45;97183.00;;;14.00
19666;BMP180;9980;51.020;7.772;2023-04-25T10:37:14;97185.00;;;14.10
19666;BMP180;9980;51.020;7.772;2023-04-25T10:39:41;97191.00;;;14.10
19666;BMP180;9980;51.020;7.772;2023-04-25T10:42:08;97171.00;;;14.10
19666;BMP180;9980;51.020;7.772;2023-04-25T10:44:37;97186.00;;;14.10
19666;BMP180;9980;51.020;7.772;2023-04-25T10:47:07;97169.00;;;14.10
19666;BMP180;9980;51.020;7.772;2023-04-25T10:49:42;97175.00;;;14.20
19666;BMP180;9980;51.020;7.772;2023-04-25T10:52:16;97182.00;;;14.30
19666;BMP180;9980;51.020;7.772;2023-04-25T10:54:56;97190.00;;;14.30
19666;BMP180;9980;51.020;7.772;2023-04-25T10:57:40;97188.00;;;14.40
19666;BMP180;9980;51.020;7.772;2023-04-25T11:00:19;97187.00;;;14.40
19666;BMP180;9980;51.020;7.772;2023-04-25T11:02:57;97185.00;;;14.50
19666;BMP180;9980;51.020;7.772;2023-04-25T11:05:35;97200.00;;;14.40
19666;BMP180;9980;51.020;7.772;2023-04-25T11:08:17;97211.00;;;14.40
19666;BMP180;9980;51.020;7.772;2023-04-25T11:10:44;97194.00;;;14.40
19666;BMP180;9980;51.020;7.772;2023-04-25T11:13:10;97209.00;;;14.40
19666;BMP180;9980;51.020;7.772;2023-04-25T11:15:37;97207.00;;;14.40
19666;BMP180;9980;51.020;7.772;2023-04-25T11:18:03;97208.00;;;14.40
19666;BMP180;9980;51.020;7.772;2023-04-25T11:20:30;97217.00;;;14.30
19666;BMP180;9980;51.020;7.772;2023-04-25T11:23:00;97216.00;;;14.40
19666;BMP180;9980;51.020;7.772;2023-04-25T11:25:26;97203.00;;;14.40
19666;BMP180;9980;51.020;7.772;2023-04-25T11:27:58;97208.00;;;14.50
19666;BMP180;9980;51.020;7.772;2023-04-25T11:30:26;97210.00;;;14.50
19666;BMP180;9980;51.020;7.772;2023-04-25T11:32:53;97224.00;;;14.50
19666;BMP180;9980;51.020;7.772;2023-04-25T11:35:20;97214.00;;;14.60
19666;BMP180;9980;51.020;7.772;2023-04-25T11:37:49;97199.00;;;14.70
19666;BMP180;9980;51.020;7.772;2023-04-25T11:40:16;97211.00;;;14.90
19666;BMP180;9980;51.020;7.772;2023-04-25T11:42:47;97189.00;;;15.00
19666;BMP180;9980;51.020;7.772;2023-04-25T11:45:14;97214.00;;;15.20
19666;BMP180;9980;51.020;7.772;2023-04-25T11:47:40;97194.00;;;15.40
19666;BMP180;9980;51.020;7.772;2023-04-25T11:50:08;97202.00;;;15.60
19666;BMP180;9980;51.020;7.772;2023-04-25T11:52:41;97203.00;;;15.70
19666;BMP180;9980;51.020;7.772;2023-04-25T11:55:16;97213.00;;;15.80
19666;BMP180;9980;51.020;7.772;2023-04-25T11:57:47;97212.00;;;15.80
19666;BMP180;9980;51.020;7.772;2023-04-25T12:00:17;97207.00;;;15.80
19666;BMP180;9980;51.020;7.772;2023-04-25T12:02:53;97200.00;;;15.80
19666;BMP180;9980;51.020;7.772;2023-04-25T12:05:25;97218.00;;;15.80
19666;BMP180;9980;51.020;7.772;2023-04-25T12:08:12;97213.00;;;15.80
19666;BMP180;9980;51.020;7.772;2023-04-25T12:10:41;97226.00;;;15.80
19666;BMP180;9980;51.020;7.772;2023-04-25T12:13:25;97232.00;;;15.70
19666;BMP180;9980;51.020;7.772;2023-04-25T12:15:54;97229.00;;;15.70
19666;BMP180;9980;51.020;7.772;2023-04-25T12:18:24;97228.00;;;15.70
19666;BMP180;9980;51.020;7.772;2023-04-25T12:20:54;97221.00;;;15.60
19666;BMP180;9980;51.020;7.772;2023-04-25T12:23:28;97232.00;;;15.60
19666;BMP180;9980;51.020;7.772;2023-04-25T12:25:56;97222.00;;;15.60
19666;BMP180;9980;51.020;7.772;2023-04-25T12:28:25;97226.00;;;15.70
19666;BMP180;9980;51.020;7.772;2023-04-25T12:31:07;97224.00;;;15.80
19666;BMP180;9980;51.020;7.772;2023-04-25T12:33:36;97227.00;;;15.90
19666;BMP180;9980;51.020;7.772;2023-04-25T12:36:04;97225.00;;;15.90
19666;BMP180;9980;51.020;7.772;2023-04-25T12:38:40;97243.00;;;15.90
19666;BMP180;9980;51.020;7.772;2023-04-25T12:41:07;97230.00;;;15.90
19666;BMP180;9980;51.020;7.772;2023-04-25T12:43:34;97247.00;;;15.80
19666;BMP180;9980;51.020;7.772;2023-04-25T12:46:01;97252.00;;;15.80
19666;BMP180;9980;51.020;7.772;2023-04-25T12:48:27;97253.00;;;15.70
19666;BMP180;9980;51.020;7.772;2023-04-25T12:50:53;97244.00;;;15.70
19666;BMP180;9980;51.020;7.772;2023-04-25T12:53:22;97241.00;;;15.60
19666;BMP180;9980;51.020;7.772;2023-04-25T12:55:49;97246.00;;;15.60
19666;BMP180;9980;51.020;7.772;2023-04-25T12:58:16;97249.00;;;15.50
19666;BMP180;9980;51.020;7.772;2023-04-25T13:00:44;97265.00;;;15.50
19666;BMP180;9980;51.020;7.772;2023-04-25T13:03:12;97243.00;;;15.50
19666;BMP180;9980;51.020;7.772;2023-04-25T13:05:39;97249.00;;;15.40
19666;BMP180;9980;51.020;7.772;2023-04-25T13:08:05;97264.00;;;15.40
19666;BMP180;9980;51.020;7.772;2023-04-25T13:10:32;97264.00;;;15.40
19666;BMP180;9980;51.020;7.772;2023-04-25T13:13:00;97274.00;;;15.40
19666;BMP180;9980;51.020;7.772;2023-04-25T13:15:27;97274.00;;;15.40
19666;BMP180;9980;51.020;7.772;2023-04-25T13:17:53;97282.00;;;15.40
19666;BMP180;9980;51.020;7.772;2023-04-25T13:20:19;97272.00;;;15.40
19666;BMP180;9980;51.020;7.772;2023-04-25T13:22:48;97285.00;;;15.50
19666;BMP180;9980;51.020;7.772;2023-04-25T13:25:14;97272.00;;;15.50
19666;BMP180;9980;51.020;7.772;2023-04-25T13:27:41;97282.00;;;15.60
19666;BMP180;9980;51.020;7.772;2023-04-25T13:30:10;97279.00;;;15.60
19666;BMP180;9980;51.020;7.772;2023-04-25T13:32:37;97289.00;;;15.60
19666;BMP180;9980;51.020;7.772;2023-04-25T13:35:11;97288.00;;;15.60
19666;BMP180;9980;51.020;7.772;2023-04-25T13:37:39;97286.00;;;15.60
19666;BMP180;9980;51.020;7.772;2023-04-25T13:40:09;97284.00;;;15.60
19666;BMP180;9980;51.020;7.772;2023-04-25T13:42:38;97285.00;;;15.60
19666;BMP180;9980;51.020;7.772;2023-04-25T13:45:05;97280.00;;;15.60
19666;BMP180;9980;51.020;7.772;2023-04-25T13:47:32;97271.00;;;15.60
19666;BMP180;9980;51.020;7.772;2023-04-25T13:49:58;97285.00;;;15.60
19666;BMP180;9980;51.020;7.772;2023-04-25T13:52:25;97287.00;;;15.50
19666;BMP180;9980;51.020;7.772;2023-04-25T13:54:52;97289.00;;;15.50
19666;BMP180;9980;51.020;7.772;2023-04-25T13:57:18;97284.00;;;15.40
19666;BMP180;9980;51.020;7.772;2023-04-25T13:59:45;97301.00;;;15.40
19666;BMP180;9980;51.020;7.772;2023-04-25T14:02:12;97299.00;;;15.40
19666;BMP180;9980;51.020;7.772;2023-04-25T14:04:38;97300.00;;;15.40
19666;BMP180;9980;51.020;7.772;2023-04-25T14:07:05;97294.00;;;15.40
19666;BMP180;9980;51.020;7.772;2023-04-25T14:09:31;97291.00;;;15.30
19666;BMP180;9980;51.020;7.772;2023-04-25T14:11:57;97300.00;;;15.30
19666;BMP180;9980;51.020;7.772;2023-04-25T14:14:24;97304.00;;;15.30
19666;BMP180;9980;51.020;7.772;2023-04-25T14:16:51;97317.00;;;15.20
19666;BMP180;9980;51.020;7.772;2023-04-25T14:19:20;97312.00;;;15.10
19666;BMP180;9980;51.020;7.772;2023-04-25T14:21:48;97293.00;;;15.10
19666;BMP180;9980;51.020;7.772;2023-04-25T14:24:15;97314.00;;;15.10
19666;BMP180;9980;51.020;7.772;2023-04-25T14:26:42;97313.00;;;15.00
19666;BMP180;9980;51.020;7.772;2023-04-25T14:29:10;97308.00;;;15.00
19666;BMP180;9980;51.020;7.772;2023-04-25T14:31:38;97316.00;;;15.00
19666;BMP180;9980;51.020;7.772;2023-04-25T14:34:05;97306.00;;;15.00
19666;BMP180;9980;51.020;7.772;2023-04-25T14:36:32;97312.00;;;15.00
19666;BMP180;9980;51.020;7.772;2023-04-25T14:38:59;97303.00;;;15.00
19666;BMP180;9980;51.020;7.772;2023-04-25T14:41:26;97321.00;;;15.00
19666;BMP180;9980;51.020;7.772;2023-04-25T14:43:53;97323.00;;;15.00
19666;BMP180;9980;51.020;7.772;2023-04-25T14:46:20;97314.00;;;15.10